sensor_id;sensor_type;location;lat;lon;timestamp;temperature;humidity
21123;DHT22;10719;48.130;11.630;2022-11-11T00:00:22;4.50;99.90
21123;DHT22;10719;48.130;11.630;2022-11-11T00:02:49;4.60;99.90
21123;DHT22;10719;48.130;11.630;2022-11-11T00:05:15;4.60;99.90
21123;DHT22;10719;48.130;11.630;2022-11-11T00:07:42;4.50;99.90
21123;DHT22;10719;48.130;11.630;2022-11-11T00:10:08;4.50;99.90
21123;DHT22;10719;48.130;11.630;2022-11-11T00:12:33;4.40;99.90
21123;DHT22;10719;48.130;11.630;2022-11-11T00:14:59;4.40;99.90
21123;DHT22;10719;48.130;11.630;2022-11-11T00:17:25;4.40;99.90
21123;DHT22;10719;48.130;11.630;2022-11-11T00:20:10;4.50;99.90
21123;DHT22;10719;48.130;11.630;2022-11-11T00:22:54;4.40;99.90
21123;DHT22;10719;48.130;11.630;2022-11-11T00:25:38;4.30;99.90
21123;DHT22;10719;48.130;11.630;2022-11-11T00:28:04;4.30;99.90
21123;DHT22;10719;48.130;11.630;2022-11-11T00:30:30;4.30;99.90
21123;DHT22;10719;48.130;11.630;2022-11-11T00:32:56;4.30;99.90
21123;DHT22;10719;48.130;11.630;2022-11-11T00:35:21;4.30;99.90
21123;DHT22;10719;48.130;11.630;2022-11-11T00:38:11;4.30;99.90
21123;DHT22;10719;48.130;11.630;2022-11-11T00:40:57;4.30;99.90
21123;DHT22;10719;48.130;11.630;2022-11-11T00:43:23;4.30;99.90
21123;DHT22;10719;48.130;11.630;2022-11-11T00:45:48;4.30;99.90
21123;DHT22;10719;48.130;11.630;2022-11-11T00:48:14;4.30;99.90
21123;DHT22;10719;48.130;11.630;2022-11-11T00:50:58;4.30;99.90
21123;DHT22;10719;48.130;11.630;2022-11-11T00:53:28;4.30;99.90
21123;DHT22;10719;48.130;11.630;2022-11-11T00:55:56;4.30;99.90
21123;DHT22;10719;48.130;11.630;2022-11-11T00:58:23;4.30;99.90
21123;DHT22;10719;48.130;11.630;2022-11-11T01:00:48;4.30;99.90
21123;DHT22;10719;48.130;11.630;2022-11-11T01:03:17;4.20;99.90
21123;DHT22;10719;48.130;11.630;2022-11-11T01:05:43;4.20;99.90
21123;DHT22;10719;48.130;11.630;2022-11-11T01:08:09;4.20;99.90
21123;DHT22;10719;48.130;11.630;2022-11-11T01:10:35;4.20;99.90
21123;DHT22;10719;48.130;11.630;2022-11-11T01:13:22;4.20;99.90
21123;DHT22;10719;48.130;11.630;2022-11-11T01:15:50;4.20;99.90
21123;DHT22;10719;48.130;11.630;2022-11-11T01:18:19;4.20;99.90
21123;DHT22;10719;48.130;11.630;2022-11-11T01:20:45;4.10;99.90
21123;DHT22;10719;48.130;11.630;2022-11-11T01:23:12;4.10;99.90
21123;DHT22;10719;48.130;11.630;2022-11-11T01:25:40;4.00;99.90
21123;DHT22;10719;48.130;11.630;2022-11-11T01:28:06;4.00;99.90
21123;DHT22;10719;48.130;11.630;2022-11-11T01:30:34;4.00;99.90
21123;DHT22;10719;48.130;11.630;2022-11-11T01:33:00;4.00;99.90
21123;DHT22;10719;48.130;11.630;2022-11-11T01:35:27;3.90;99.90
21123;DHT22;10719;48.130;11.630;2022-11-11T01:37:52;3.90;99.90
21123;DHT22;10719;48.130;11.630;2022-11-11T01:40:19;3.90;99.90
21123;DHT22;10719;48.130;11.630;2022-11-11T01:42:48;3.90;99.90
21123;DHT22;10719;48.130;11.630;2022-11-11T01:48:18;3.90;99.90
21123;DHT22;10719;48.130;11.630;2022-11-11T01:51:05;3.80;99.90
21123;DHT22;10719;48.130;11.630;2022-11-11T01:53:34;3.80;99.90
21123;DHT22;10719;48.130;11.630;2022-11-11T01:56:01;3.80;99.90
21123;DHT22;10719;48.130;11.630;2022-11-11T01:58:27;3.80;99.90
21123;DHT22;10719;48.130;11.630;2022-11-11T02:00:52;3.70;99.90
21123;DHT22;10719;48.130;11.630;2022-11-11T02:03:20;3.70;99.90
21123;DHT22;10719;48.130;11.630;2022-11-11T02:05:48;3.70;99.90
21123;DHT22;10719;48.130;11.630;2022-11-11T02:08:33;3.60;99.90
21123;DHT22;10719;48.130;11.630;2022-11-11T02:11:14;3.60;99.90
21123;DHT22;10719;48.130;11.630;2022-11-11T02:14:01;3.60;99.90
21123;DHT22;10719;48.130;11.630;2022-11-11T02:16:45;3.60;99.90
21123;DHT22;10719;48.130;11.630;2022-11-11T02:19:12;3.60;99.90
21123;DHT22;10719;48.130;11.630;2022-11-11T02:21:46;3.60;99.90
21123;DHT22;10719;48.130;11.630;2022-11-11T02:24:17;3.60;99.90
21123;DHT22;10719;48.130;11.630;2022-11-11T02:26:45;3.50;99.90
21123;DHT22;10719;48.130;11.630;2022-11-11T02:29:16;3.50;99.90
21123;DHT22;10719;48.130;11.630;2022-11-11T02:31:42;3.60;99.90
21123;DHT22;10719;48.130;11.630;2022-11-11T02:34:08;3.60;99.90
21123;DHT22;10719;48.130;11.630;2022-11-11T02:36:34;3.50;99.90
21123;DHT22;10719;48.130;11.630;2022-11-11T02:39:00;3.50;99.90
21123;DHT22;10719;48.130;11.630;2022-11-11T02:41:26;3.50;99.90
21123;DHT22;10719;48.130;11.630;2022-11-11T02:44:10;3.40;99.90
21123;DHT22;10719;48.130;11.630;2022-11-11T02:46:36;3.30;99.90
21123;DHT22;10719;48.130;11.630;2022-11-11T02:49:02;3.30;99.90
21123;DHT22;10719;48.130;11.630;2022-11-11T02:51:27;3.30;99.90
21123;DHT22;10719;48.130;11.630;2022-11-11T02:53:53;3.30;99.90
21123;DHT22;10719;48.130;11.630;2022-11-11T02:56:23;3.30;99.90
21123;DHT22;10719;48.130;11.630;2022-11-11T02:59:08;3.30;99.90
21123;DHT22;10719;48.130;11.630;2022-11-11T03:01:33;3.30;99.90
21123;DHT22;10719;48.130;11.630;2022-11-11T03:03:59;3.20;99.90
21123;DHT22;10719;48.130;11.630;2022-11-11T03:06:24;3.20;99.90
21123;DHT22;10719;48.130;11.630;2022-11-11T03:08:50;3.20;99.90
21123;DHT22;10719;48.130;11.630;2022-11-11T03:11:16;3.20;99.90
21123;DHT22;10719;48.130;11.630;2022-11-11T03:13:55;3.20;99.90
21123;DHT22;10719;48.130;11.630;2022-11-11T03:16:21;3.20;99.90
21123;DHT22;10719;48.130;11.630;2022-11-11T03:19:05;3.20;99.90
21123;DHT22;10719;48.130;11.630;2022-11-11T03:21:30;3.20;99.90
21123;DHT22;10719;48.130;11.630;2022-11-11T03:23:56;3.20;99.90
21123;DHT22;10719;48.130;11.630;2022-11-11T03:26:22;3.20;99.90
21123;DHT22;10719;48.130;11.630;2022-11-11T03:28:47;3.20;99.90
21123;DHT22;10719;48.130;11.630;2022-11-11T03:31:14;3.20;99.90
21123;DHT22;10719;48.130;11.630;2022-11-11T03:33:40;3.10;99.90
21123;DHT22;10719;48.130;11.630;2022-11-11T03:36:05;3.10;99.90
21123;DHT22;10719;48.130;11.630;2022-11-11T03:38:31;3.10;99.90
21123;DHT22;10719;48.130;11.630;2022-11-11T03:40:57;3.10;99.90
21123;DHT22;10719;48.130;11.630;2022-11-11T03:43:27;3.10;99.90
21123;DHT22;10719;48.130;11.630;2022-11-11T03:45:56;3.10;99.90
21123;DHT22;10719;48.130;11.630;2022-11-11T03:48:23;3.10;99.90
21123;DHT22;10719;48.130;11.630;2022-11-11T03:50:49;3.10;99.90
21123;DHT22;10719;48.130;11.630;2022-11-11T03:53:16;3.10;99.90
21123;DHT22;10719;48.130;11.630;2022-11-11T03:55:44;3.10;99.90
21123;DHT22;10719;48.130;11.630;2022-11-11T03:58:09;3.10;99.90
21123;DHT22;10719;48.130;11.630;2022-11-11T04:00:35;3.10;99.90
21123;DHT22;10719;48.130;11.630;2022-11-11T04:06:00;3.10;99.90
21123;DHT22;10719;48.130;11.630;2022-11-11T04:08:44;3.00;99.90
21123;DHT22;10719;48.130;11.630;2022-11-11T04:11:38;3.00;99.90
21123;DHT22;10719;48.130;11.630;2022-11-11T04:14:07;3.00;99.90
21123;DHT22;10719;48.130;11.630;2022-11-11T04:16:52;3.00;99.90
21123;DHT22;10719;48.130;11.630;2022-11-11T04:19:18;2.90;99.90
21123;DHT22;10719;48.130;11.630;2022-11-11T04:22:02;2.90;99.90
21123;DHT22;10719;48.130;11.630;2022-11-11T04:24:28;2.90;99.90
21123;DHT22;10719;48.130;11.630;2022-11-11T04:27:15;2.90;99.90
21123;DHT22;10719;48.130;11.630;2022-11-11T04:29:41;2.90;99.90
21123;DHT22;10719;48.130;11.630;2022-11-11T04:34:53;2.90;99.90
21123;DHT22;10719;48.130;11.630;2022-11-11T04:37:21;2.90;99.90
21123;DHT22;10719;48.130;11.630;2022-11-11T04:39:47;2.80;99.90
21123;DHT22;10719;48.130;11.630;2022-11-11T04:42:31;2.80;99.90
21123;DHT22;10719;48.130;11.630;2022-11-11T04:44:58;2.80;99.90
21123;DHT22;10719;48.130;11.630;2022-11-11T04:48:01;2.80;99.90
21123;DHT22;10719;48.130;11.630;2022-11-11T04:50:32;2.90;99.90
21123;DHT22;10719;48.130;11.630;2022-11-11T04:52:58;2.80;99.90
21123;DHT22;10719;48.130;11.630;2022-11-11T04:55:24;2.80;99.90
21123;DHT22;10719;48.130;11.630;2022-11-11T04:58:22;2.80;99.90
21123;DHT22;10719;48.130;11.630;2022-11-11T05:00:48;2.80;99.90
21123;DHT22;10719;48.130;11.630;2022-11-11T05:03:14;2.70;99.90
21123;DHT22;10719;48.130;11.630;2022-11-11T05:05:51;2.70;99.90
21123;DHT22;10719;48.130;11.630;2022-11-11T05:08:40;2.70;99.90
21123;DHT22;10719;48.130;11.630;2022-11-11T05:13:51;2.80;99.90
21123;DHT22;10719;48.130;11.630;2022-11-11T05:16:55;2.80;99.90
21123;DHT22;10719;48.130;11.630;2022-11-11T05:19:39;2.80;99.90
21123;DHT22;10719;48.130;11.630;2022-11-11T05:22:29;2.70;99.90
21123;DHT22;10719;48.130;11.630;2022-11-11T05:24:55;2.70;99.90
21123;DHT22;10719;48.130;11.630;2022-11-11T05:27:40;2.60;99.90
21123;DHT22;10719;48.130;11.630;2022-11-11T05:30:07;2.60;99.90
21123;DHT22;10719;48.130;11.630;2022-11-11T05:32:33;2.70;99.90
21123;DHT22;10719;48.130;11.630;2022-11-11T05:34:59;2.60;99.90
21123;DHT22;10719;48.130;11.630;2022-11-11T05:37:24;2.60;99.90
21123;DHT22;10719;48.130;11.630;2022-11-11T05:39:50;2.60;99.90
21123;DHT22;10719;48.130;11.630;2022-11-11T05:42:16;2.60;99.90
21123;DHT22;10719;48.130;11.630;2022-11-11T05:44:42;2.60;99.90
21123;DHT22;10719;48.130;11.630;2022-11-11T05:47:07;2.60;99.90
21123;DHT22;10719;48.130;11.630;2022-11-11T05:49:33;2.60;99.90
21123;DHT22;10719;48.130;11.630;2022-11-11T05:51:59;2.60;99.90
21123;DHT22;10719;48.130;11.630;2022-11-11T05:54:25;2.60;99.90
21123;DHT22;10719;48.130;11.630;2022-11-11T05:56:51;2.60;99.90
21123;DHT22;10719;48.130;11.630;2022-11-11T05:59:16;2.60;99.90
21123;DHT22;10719;48.130;11.630;2022-11-11T06:01:42;2.60;99.90
21123;DHT22;10719;48.130;11.630;2022-11-11T06:04:08;2.60;99.90
21123;DHT22;10719;48.130;11.630;2022-11-11T06:06:34;2.60;99.90
21123;DHT22;10719;48.130;11.630;2022-11-11T06:09:00;2.70;99.90
21123;DHT22;10719;48.130;11.630;2022-11-11T06:11:26;2.70;99.90
21123;DHT22;10719;48.130;11.630;2022-11-11T06:13:53;2.70;99.90
21123;DHT22;10719;48.130;11.630;2022-11-11T06:16:19;2.70;99.90
21123;DHT22;10719;48.130;11.630;2022-11-11T06:18:45;2.70;99.90
21123;DHT22;10719;48.130;11.630;2022-11-11T06:21:11;2.80;99.90
21123;DHT22;10719;48.130;11.630;2022-11-11T06:23:37;2.90;99.90
21123;DHT22;10719;48.130;11.630;2022-11-11T06:26:03;2.90;99.90
21123;DHT22;10719;48.130;11.630;2022-11-11T06:28:42;3.00;99.90
21123;DHT22;10719;48.130;11.630;2022-11-11T06:31:10;3.00;99.90
21123;DHT22;10719;48.130;11.630;2022-11-11T06:33:37;3.00;99.90
21123;DHT22;10719;48.130;11.630;2022-11-11T06:36:04;3.00;99.90
21123;DHT22;10719;48.130;11.630;2022-11-11T06:38:30;3.00;99.90
21123;DHT22;10719;48.130;11.630;2022-11-11T06:40:56;3.00;99.90
21123;DHT22;10719;48.130;11.630;2022-11-11T06:43:22;3.00;99.90
21123;DHT22;10719;48.130;11.630;2022-11-11T06:45:54;3.10;99.90
21123;DHT22;10719;48.130;11.630;2022-11-11T06:48:20;3.10;99.90
21123;DHT22;10719;48.130;11.630;2022-11-11T06:50:47;3.10;99.90
21123;DHT22;10719;48.130;11.630;2022-11-11T06:53:15;3.20;99.90
21123;DHT22;10719;48.130;11.630;2022-11-11T06:55:41;3.20;99.90
21123;DHT22;10719;48.130;11.630;2022-11-11T06:58:15;3.20;99.90
21123;DHT22;10719;48.130;11.630;2022-11-11T07:00:42;3.20;99.90
21123;DHT22;10719;48.130;11.630;2022-11-11T07:03:10;3.30;99.90
21123;DHT22;10719;48.130;11.630;2022-11-11T07:05:36;3.30;99.90
21123;DHT22;10719;48.130;11.630;2022-11-11T07:08:07;3.40;99.90
21123;DHT22;10719;48.130;11.630;2022-11-11T07:10:35;3.40;99.90
21123;DHT22;10719;48.130;11.630;2022-11-11T07:13:03;3.50;99.90
21123;DHT22;10719;48.130;11.630;2022-11-11T07:15:29;3.60;99.90
21123;DHT22;10719;48.130;11.630;2022-11-11T07:17:55;3.70;99.90
21123;DHT22;10719;48.130;11.630;2022-11-11T07:20:21;3.70;99.90
21123;DHT22;10719;48.130;11.630;2022-11-11T07:22:46;3.60;99.90
21123;DHT22;10719;48.130;11.630;2022-11-11T07:25:12;3.60;99.90
21123;DHT22;10719;48.130;11.630;2022-11-11T07:27:41;3.60;99.90
21123;DHT22;10719;48.130;11.630;2022-11-11T07:30:08;3.70;99.90
21123;DHT22;10719;48.130;11.630;2022-11-11T07:32:34;3.70;99.90
21123;DHT22;10719;48.130;11.630;2022-11-11T07:35:00;3.80;99.90
21123;DHT22;10719;48.130;11.630;2022-11-11T07:37:26;3.90;99.90
21123;DHT22;10719;48.130;11.630;2022-11-11T07:39:52;4.10;99.90
21123;DHT22;10719;48.130;11.630;2022-11-11T07:42:20;4.20;99.90
21123;DHT22;10719;48.130;11.630;2022-11-11T07:44:45;4.30;99.90
21123;DHT22;10719;48.130;11.630;2022-11-11T07:47:11;4.30;99.90
21123;DHT22;10719;48.130;11.630;2022-11-11T07:49:36;4.50;99.90
21123;DHT22;10719;48.130;11.630;2022-11-11T07:52:02;4.70;99.90
21123;DHT22;10719;48.130;11.630;2022-11-11T07:54:28;4.90;99.90
21123;DHT22;10719;48.130;11.630;2022-11-11T07:56:53;5.00;99.90
21123;DHT22;10719;48.130;11.630;2022-11-11T07:59:19;5.10;99.90
21123;DHT22;10719;48.130;11.630;2022-11-11T08:01:44;5.20;99.90
21123;DHT22;10719;48.130;11.630;2022-11-11T08:04:10;5.20;99.90
21123;DHT22;10719;48.130;11.630;2022-11-11T08:06:35;5.20;99.90
21123;DHT22;10719;48.130;11.630;2022-11-11T08:09:01;5.40;99.90
21123;DHT22;10719;48.130;11.630;2022-11-11T08:11:27;5.40;99.90
21123;DHT22;10719;48.130;11.630;2022-11-11T08:14:11;5.50;99.90
21123;DHT22;10719;48.130;11.630;2022-11-11T08:16:37;5.60;99.90
21123;DHT22;10719;48.130;11.630;2022-11-11T08:19:03;5.60;99.90
21123;DHT22;10719;48.130;11.630;2022-11-11T08:21:28;5.60;99.90
21123;DHT22;10719;48.130;11.630;2022-11-11T08:23:54;5.80;99.90
21123;DHT22;10719;48.130;11.630;2022-11-11T08:26:21;5.90;99.90
21123;DHT22;10719;48.130;11.630;2022-11-11T08:28:47;6.00;99.90
21123;DHT22;10719;48.130;11.630;2022-11-11T08:31:13;6.10;99.90
21123;DHT22;10719;48.130;11.630;2022-11-11T08:33:38;6.10;99.90
21123;DHT22;10719;48.130;11.630;2022-11-11T08:36:05;6.10;99.90
21123;DHT22;10719;48.130;11.630;2022-11-11T08:38:32;6.10;99.90
21123;DHT22;10719;48.130;11.630;2022-11-11T08:41:02;6.20;99.90
21123;DHT22;10719;48.130;11.630;2022-11-11T08:43:29;6.20;99.90
21123;DHT22;10719;48.130;11.630;2022-11-11T08:45:59;6.30;99.90
21123;DHT22;10719;48.130;11.630;2022-11-11T08:48:25;6.50;99.90
21123;DHT22;10719;48.130;11.630;2022-11-11T08:50:52;6.60;99.90
21123;DHT22;10719;48.130;11.630;2022-11-11T08:53:18;6.70;99.90
21123;DHT22;10719;48.130;11.630;2022-11-11T08:55:44;6.70;99.90
21123;DHT22;10719;48.130;11.630;2022-11-11T08:58:10;6.90;99.90
21123;DHT22;10719;48.130;11.630;2022-11-11T09:00:36;6.90;99.90
21123;DHT22;10719;48.130;11.630;2022-11-11T09:03:03;7.00;99.90
21123;DHT22;10719;48.130;11.630;2022-11-11T09:05:30;7.20;99.90
21123;DHT22;10719;48.130;11.630;2022-11-11T09:07:55;7.30;99.90
21123;DHT22;10719;48.130;11.630;2022-11-11T09:10:21;7.40;99.90
21123;DHT22;10719;48.130;11.630;2022-11-11T09:12:46;7.40;99.90
21123;DHT22;10719;48.130;11.630;2022-11-11T09:15:12;7.60;99.90
21123;DHT22;10719;48.130;11.630;2022-11-11T09:17:37;7.80;99.90
21123;DHT22;10719;48.130;11.630;2022-11-11T09:20:03;7.80;99.90
21123;DHT22;10719;48.130;11.630;2022-11-11T09:22:29;7.90;99.90
21123;DHT22;10719;48.130;11.630;2022-11-11T09:24:55;8.00;99.90
21123;DHT22;10719;48.130;11.630;2022-11-11T09:27:21;8.10;99.90
21123;DHT22;10719;48.130;11.630;2022-11-11T09:29:46;8.10;99.90
21123;DHT22;10719;48.130;11.630;2022-11-11T09:32:12;8.20;99.90
21123;DHT22;10719;48.130;11.630;2022-11-11T09:34:37;8.40;99.90
21123;DHT22;10719;48.130;11.630;2022-11-11T09:37:03;8.50;99.90
21123;DHT22;10719;48.130;11.630;2022-11-11T09:39:28;8.70;99.90
21123;DHT22;10719;48.130;11.630;2022-11-11T09:50:11;9.30;99.90
21123;DHT22;10719;48.130;11.630;2022-11-11T09:55:21;10.10;99.90
21123;DHT22;10719;48.130;11.630;2022-11-11T09:58:13;10.20;99.90
21123;DHT22;10719;48.130;11.630;2022-11-11T10:00:42;10.30;99.90
21123;DHT22;10719;48.130;11.630;2022-11-11T10:03:16;10.70;99.90
21123;DHT22;10719;48.130;11.630;2022-11-11T10:05:56;11.00;99.90
21123;DHT22;10719;48.130;11.630;2022-11-11T10:08:48;11.10;99.90
21123;DHT22;10719;48.130;11.630;2022-11-11T10:11:26;11.30;99.90
21123;DHT22;10719;48.130;11.630;2022-11-11T10:13:54;11.60;99.90
21123;DHT22;10719;48.130;11.630;2022-11-11T10:16:40;11.60;99.90
21123;DHT22;10719;48.130;11.630;2022-11-11T10:19:21;11.90;99.90
21123;DHT22;10719;48.130;11.630;2022-11-11T10:21:52;12.40;99.90
21123;DHT22;10719;48.130;11.630;2022-11-11T10:24:29;12.80;99.90
21123;DHT22;10719;48.130;11.630;2022-11-11T10:26:59;14.60;99.90
21123;DHT22;10719;48.130;11.630;2022-11-11T10:29:39;16.20;99.90
21123;DHT22;10719;48.130;11.630;2022-11-11T10:32:23;16.80;99.90
21123;DHT22;10719;48.130;11.630;2022-11-11T10:34:50;16.20;99.90
21123;DHT22;10719;48.130;11.630;2022-11-11T10:37:24;16.30;99.90
21123;DHT22;10719;48.130;11.630;2022-11-11T10:42:26;15.80;99.90
21123;DHT22;10719;48.130;11.630;2022-11-11T10:44:57;16.50;99.90
21123;DHT22;10719;48.130;11.630;2022-11-11T10:50:30;17.60;99.90
21123;DHT22;10719;48.130;11.630;2022-11-11T10:53:06;17.50;99.90
21123;DHT22;10719;48.130;11.630;2022-11-11T10:55:50;17.00;99.90
21123;DHT22;10719;48.130;11.630;2022-11-11T10:58:40;16.60;99.90
21123;DHT22;10719;48.130;11.630;2022-11-11T11:01:09;16.40;99.90
21123;DHT22;10719;48.130;11.630;2022-11-11T11:03:40;16.80;99.90
21123;DHT22;10719;48.130;11.630;2022-11-11T11:06:21;17.40;99.90
21123;DHT22;10719;48.130;11.630;2022-11-11T11:08:51;16.70;99.90
21123;DHT22;10719;48.130;11.630;2022-11-11T11:11:35;16.80;99.90
21123;DHT22;10719;48.130;11.630;2022-11-11T11:14:07;16.30;99.90
21123;DHT22;10719;48.130;11.630;2022-11-11T11:16:46;15.90;99.90
21123;DHT22;10719;48.130;11.630;2022-11-11T11:22:09;15.00;99.90
21123;DHT22;10719;48.130;11.630;2022-11-11T11:24:36;15.30;99.90
21123;DHT22;10719;48.130;11.630;2022-11-11T11:27:04;15.20;99.90
21123;DHT22;10719;48.130;11.630;2022-11-11T11:29:42;15.40;99.90
21123;DHT22;10719;48.130;11.630;2022-11-11T11:32:27;15.40;99.90
21123;DHT22;10719;48.130;11.630;2022-11-11T11:34:54;15.30;99.90
21123;DHT22;10719;48.130;11.630;2022-11-11T11:37:25;14.90;99.90
21123;DHT22;10719;48.130;11.630;2022-11-11T11:40:03;14.80;99.90
21123;DHT22;10719;48.130;11.630;2022-11-11T11:42:37;15.00;99.90
21123;DHT22;10719;48.130;11.630;2022-11-11T11:57:19;14.50;99.90
21123;DHT22;10719;48.130;11.630;2022-11-11T11:59:57;13.90;99.90
21123;DHT22;10719;48.130;11.630;2022-11-11T12:11:09;13.60;99.90
21123;DHT22;10719;48.130;11.630;2022-11-11T12:16:32;13.80;99.90
21123;DHT22;10719;48.130;11.630;2022-11-11T12:21:50;14.30;99.90
21123;DHT22;10719;48.130;11.630;2022-11-11T12:25:17;14.00;99.90
21123;DHT22;10719;48.130;11.630;2022-11-11T12:30:12;13.80;99.90
21123;DHT22;10719;48.130;11.630;2022-11-11T12:43:44;13.70;99.90
21123;DHT22;10719;48.130;11.630;2022-11-11T12:49:29;14.50;99.90
21123;DHT22;10719;48.130;11.630;2022-11-11T12:55:33;16.50;99.90
21123;DHT22;10719;48.130;11.630;2022-11-11T12:58:37;17.10;99.90
21123;DHT22;10719;48.130;11.630;2022-11-11T13:09:45;18.10;99.90
21123;DHT22;10719;48.130;11.630;2022-11-11T13:12:37;18.20;99.90
21123;DHT22;10719;48.130;11.630;2022-11-11T13:15:20;18.90;99.90
21123;DHT22;10719;48.130;11.630;2022-11-11T13:17:46;19.00;99.90
21123;DHT22;10719;48.130;11.630;2022-11-11T13:20:27;17.80;99.90
21123;DHT22;10719;48.130;11.630;2022-11-11T13:22:59;17.20;99.90
21123;DHT22;10719;48.130;11.630;2022-11-11T13:25:27;16.90;99.90
21123;DHT22;10719;48.130;11.630;2022-11-11T13:28:18;16.40;99.90
21123;DHT22;10719;48.130;11.630;2022-11-11T13:31:00;15.90;99.90
21123;DHT22;10719;48.130;11.630;2022-11-11T13:36:02;14.40;99.90
21123;DHT22;10719;48.130;11.630;2022-11-11T13:38:32;13.90;99.90
21123;DHT22;10719;48.130;11.630;2022-11-11T13:41:02;13.30;99.90
21123;DHT22;10719;48.130;11.630;2022-11-11T13:43:46;13.00;99.90
21123;DHT22;10719;48.130;11.630;2022-11-11T13:46:43;12.70;99.90
21123;DHT22;10719;48.130;11.630;2022-11-11T13:49:35;12.60;99.90
21123;DHT22;10719;48.130;11.630;2022-11-11T13:52:04;12.20;99.90
21123;DHT22;10719;48.130;11.630;2022-11-11T13:54:47;12.10;99.90
21123;DHT22;10719;48.130;11.630;2022-11-11T13:57:16;12.10;99.90
21123;DHT22;10719;48.130;11.630;2022-11-11T13:59:48;11.90;99.90
21123;DHT22;10719;48.130;11.630;2022-11-11T14:12:43;11.60;99.90
21123;DHT22;10719;48.130;11.630;2022-11-11T14:20:43;11.50;99.90
21123;DHT22;10719;48.130;11.630;2022-11-11T14:23:32;11.50;99.90
21123;DHT22;10719;48.130;11.630;2022-11-11T14:28:53;11.50;99.90
21123;DHT22;10719;48.130;11.630;2022-11-11T14:36:42;11.30;99.90
21123;DHT22;10719;48.130;11.630;2022-11-11T14:42:01;11.20;99.90
21123;DHT22;10719;48.130;11.630;2022-11-11T14:49:49;11.00;99.90
21123;DHT22;10719;48.130;11.630;2022-11-11T14:52:40;10.80;99.90
21123;DHT22;10719;48.130;11.630;2022-11-11T14:55:11;10.80;99.90
21123;DHT22;10719;48.130;11.630;2022-11-11T15:00:16;10.60;99.90
21123;DHT22;10719;48.130;11.630;2022-11-11T15:02:52;10.60;99.90
21123;DHT22;10719;48.130;11.630;2022-11-11T15:08:45;10.50;99.90
21123;DHT22;10719;48.130;11.630;2022-11-11T15:28:15;10.00;99.90
21123;DHT22;10719;48.130;11.630;2022-11-11T15:31:19;9.90;99.90
21123;DHT22;10719;48.130;11.630;2022-11-11T15:34:05;9.80;99.90
21123;DHT22;10719;48.130;11.630;2022-11-11T15:39:14;9.50;99.90
21123;DHT22;10719;48.130;11.630;2022-11-11T15:41:42;9.40;99.90
21123;DHT22;10719;48.130;11.630;2022-11-11T15:44:28;9.30;99.90
21123;DHT22;10719;48.130;11.630;2022-11-11T15:46:55;9.30;99.90
21123;DHT22;10719;48.130;11.630;2022-11-11T15:52:29;9.10;99.90
21123;DHT22;10719;48.130;11.630;2022-11-11T15:54:56;9.00;99.90
21123;DHT22;10719;48.130;11.630;2022-11-11T15:57:31;8.90;99.90
21123;DHT22;10719;48.130;11.630;2022-11-11T16:00:00;8.80;99.90
21123;DHT22;10719;48.130;11.630;2022-11-11T16:02:29;8.70;99.90
21123;DHT22;10719;48.130;11.630;2022-11-11T16:04:59;8.70;99.90
21123;DHT22;10719;48.130;11.630;2022-11-11T16:07:30;8.60;99.90
21123;DHT22;10719;48.130;11.630;2022-11-11T16:10:07;8.50;99.90
21123;DHT22;10719;48.130;11.630;2022-11-11T16:17:59;8.40;99.90
21123;DHT22;10719;48.130;11.630;2022-11-11T16:21:08;8.30;99.90
21123;DHT22;10719;48.130;11.630;2022-11-11T16:23:36;8.30;99.90
21123;DHT22;10719;48.130;11.630;2022-11-11T16:26:02;8.20;99.90
21123;DHT22;10719;48.130;11.630;2022-11-11T16:28:51;8.20;99.90
21123;DHT22;10719;48.130;11.630;2022-11-11T16:33:59;8.10;99.90
21123;DHT22;10719;48.130;11.630;2022-11-11T16:36:24;8.00;99.90
21123;DHT22;10719;48.130;11.630;2022-11-11T16:38:50;7.90;99.90
21123;DHT22;10719;48.130;11.630;2022-11-11T16:41:29;7.90;99.90
21123;DHT22;10719;48.130;11.630;2022-11-11T16:43:58;7.90;99.90
21123;DHT22;10719;48.130;11.630;2022-11-11T16:49:37;7.80;99.90
21123;DHT22;10719;48.130;11.630;2022-11-11T16:52:18;7.80;99.90
21123;DHT22;10719;48.130;11.630;2022-11-11T16:54:51;7.80;99.90
21123;DHT22;10719;48.130;11.630;2022-11-11T16:57:20;7.80;99.90
21123;DHT22;10719;48.130;11.630;2022-11-11T16:59:49;7.70;99.90
21123;DHT22;10719;48.130;11.630;2022-11-11T17:02:18;7.60;99.90
21123;DHT22;10719;48.130;11.630;2022-11-11T17:04:53;7.60;99.90
21123;DHT22;10719;48.130;11.630;2022-11-11T17:07:37;7.50;99.90
21123;DHT22;10719;48.130;11.630;2022-11-11T17:10:21;7.50;99.90
21123;DHT22;10719;48.130;11.630;2022-11-11T17:12:50;7.50;99.90
21123;DHT22;10719;48.130;11.630;2022-11-11T17:15:20;7.50;99.90
21123;DHT22;10719;48.130;11.630;2022-11-11T17:17:46;7.50;99.90
21123;DHT22;10719;48.130;11.630;2022-11-11T17:20:17;7.40;99.90
21123;DHT22;10719;48.130;11.630;2022-11-11T17:25:12;7.30;99.90
21123;DHT22;10719;48.130;11.630;2022-11-11T17:27:38;7.30;99.90
21123;DHT22;10719;48.130;11.630;2022-11-11T17:30:04;7.30;99.90
21123;DHT22;10719;48.130;11.630;2022-11-11T17:32:30;7.20;99.90
21123;DHT22;10719;48.130;11.630;2022-11-11T17:34:55;7.20;99.90
21123;DHT22;10719;48.130;11.630;2022-11-11T17:37:21;7.20;99.90
21123;DHT22;10719;48.130;11.630;2022-11-11T17:39:47;7.10;99.90
21123;DHT22;10719;48.130;11.630;2022-11-11T17:42:12;7.20;99.90
21123;DHT22;10719;48.130;11.630;2022-11-11T17:44:39;7.10;99.90
21123;DHT22;10719;48.130;11.630;2022-11-11T17:47:04;7.20;99.90
21123;DHT22;10719;48.130;11.630;2022-11-11T17:49:30;7.10;99.90
21123;DHT22;10719;48.130;11.630;2022-11-11T17:51:55;7.10;99.90
21123;DHT22;10719;48.130;11.630;2022-11-11T17:54:21;7.10;99.90
21123;DHT22;10719;48.130;11.630;2022-11-11T17:56:48;7.10;99.90
21123;DHT22;10719;48.130;11.630;2022-11-11T17:59:13;7.10;99.90
21123;DHT22;10719;48.130;11.630;2022-11-11T18:01:39;7.10;99.90
21123;DHT22;10719;48.130;11.630;2022-11-11T18:04:05;7.00;99.90
21123;DHT22;10719;48.130;11.630;2022-11-11T18:06:31;7.00;99.90
21123;DHT22;10719;48.130;11.630;2022-11-11T18:08:57;7.00;99.90
21123;DHT22;10719;48.130;11.630;2022-11-11T18:11:23;7.00;99.90
21123;DHT22;10719;48.130;11.630;2022-11-11T18:13:49;6.90;99.90
21123;DHT22;10719;48.130;11.630;2022-11-11T18:16:16;6.90;99.90
21123;DHT22;10719;48.130;11.630;2022-11-11T18:18:42;6.90;99.90
21123;DHT22;10719;48.130;11.630;2022-11-11T18:21:07;7.00;99.90
21123;DHT22;10719;48.130;11.630;2022-11-11T18:23:36;7.00;99.90
21123;DHT22;10719;48.130;11.630;2022-11-11T18:26:02;6.90;99.90
21123;DHT22;10719;48.130;11.630;2022-11-11T18:28:33;6.90;99.90
21123;DHT22;10719;48.130;11.630;2022-11-11T18:31:07;6.90;99.90
21123;DHT22;10719;48.130;11.630;2022-11-11T18:33:33;7.00;99.90